Terminal Aerodrome Forecast
Issued by NWS Nashville, TN

Current Version | Previous Version | Text Only | Print | Product List | Glossary On
Versions: 1 2 3 4 5 6 7 8 9 10 11 12 13 14 15 16 17 18 19 20 21 22 23 24 25
000
FTUS44 KOHX 031700
TAFBNA
TAF
KBNA 031727Z 0318/0418 20011G17KT P6SM OVC007
     FM032000 20012G19KT 5SM -SHRA OVC007
     FM040900 26009KT 4SM -RA OVC005
     FM041100 33006KT 4SM -RA OVC004=

USA.gov is the U.S. government's official web portal to all federal, state and local government web resources and services.